sensor_id;sensor_type;location;lat;lon;timestamp;P1;durP1;ratioP1;P2;durP2;ratioP2
18066;SDS011;9158;51.528;7.192;2023-07-16T00:00:16;3.05;;;1.85;;
18066;SDS011;9158;51.528;7.192;2023-07-16T00:00:53;1.70;;;1.58;;
18066;SDS011;9158;51.528;7.192;2023-07-16T00:01:24;4.30;;;1.97;;
18066;SDS011;9158;51.528;7.192;2023-07-16T00:01:57;1.50;;;1.40;;
18066;SDS011;9158;51.528;7.192;2023-07-16T00:02:28;2.53;;;1.92;;
18066;SDS011;9158;51.528;7.192;2023-07-16T00:02:59;2.67;;;1.80;;
18066;SDS011;9158;51.528;7.192;2023-07-16T00:03:31;1.50;;;1.40;;
18066;SDS011;9158;51.528;7.192;2023-07-16T00:04:02;2.50;;;1.70;;
18066;SDS011;9158;51.528;7.192;2023-07-16T00:04:33;2.20;;;1.95;;
18066;SDS011;9158;51.528;7.192;2023-07-16T00:05:05;2.15;;;1.55;;
18066;SDS011;9158;51.528;7.192;2023-07-16T00:05:37;2.60;;;2.00;;
18066;SDS011;9158;51.528;7.192;2023-07-16T00:06:08;2.17;;;1.80;;
18066;SDS011;9158;51.528;7.192;2023-07-16T00:06:39;2.90;;;2.03;;
18066;SDS011;9158;51.528;7.192;2023-07-16T00:07:10;3.67;;;2.27;;
18066;SDS011;9158;51.528;7.192;2023-07-16T00:07:42;3.35;;;2.47;;
18066;SDS011;9158;51.528;7.192;2023-07-16T00:08:13;2.30;;;2.10;;
18066;SDS011;9158;51.528;7.192;2023-07-16T00:08:44;2.47;;;1.65;;
18066;SDS011;9158;51.528;7.192;2023-07-16T00:09:15;1.93;;;1.83;;
18066;SDS011;9158;51.528;7.192;2023-07-16T00:09:47;4.32;;;2.45;;
18066;SDS011;9158;51.528;7.192;2023-07-16T00:10:18;1.80;;;1.70;;
18066;SDS011;9158;51.528;7.192;2023-07-16T00:10:49;3.08;;;2.13;;
18066;SDS011;9158;51.528;7.192;2023-07-16T00:11:20;2.13;;;2.03;;
18066;SDS011;9158;51.528;7.192;2023-07-16T00:11:52;2.15;;;1.70;;
18066;SDS011;9158;51.528;7.192;2023-07-16T00:12:23;3.03;;;1.90;;
18066;SDS011;9158;51.528;7.192;2023-07-16T00:12:54;2.00;;;1.90;;
18066;SDS011;9158;51.528;7.192;2023-07-16T00:13:26;4.15;;;1.98;;
18066;SDS011;9158;51.528;7.192;2023-07-16T00:13:58;4.05;;;1.67;;
18066;SDS011;9158;51.528;7.192;2023-07-16T00:14:31;1.50;;;1.40;;
18066;SDS011;9158;51.528;7.192;2023-07-16T00:15:03;2.70;;;1.70;;
18066;SDS011;9158;51.528;7.192;2023-07-16T00:15:36;3.00;;;1.63;;
18066;SDS011;9158;51.528;7.192;2023-07-16T00:16:07;3.97;;;1.98;;
18066;SDS011;9158;51.528;7.192;2023-07-16T00:16:38;3.03;;;2.07;;
18066;SDS011;9158;51.528;7.192;2023-07-16T00:17:09;1.65;;;1.55;;
18066;SDS011;9158;51.528;7.192;2023-07-16T00:17:41;2.42;;;1.90;;
18066;SDS011;9158;51.528;7.192;2023-07-16T00:18:12;6.20;;;2.03;;
18066;SDS011;9158;51.528;7.192;2023-07-16T00:18:44;4.83;;;1.77;;
18066;SDS011;9158;51.528;7.192;2023-07-16T00:19:15;2.22;;;2.03;;
18066;SDS011;9158;51.528;7.192;2023-07-16T00:19:47;3.25;;;2.20;;
18066;SDS011;9158;51.528;7.192;2023-07-16T00:20:18;3.97;;;1.73;;
18066;SDS011;9158;51.528;7.192;2023-07-16T00:20:49;2.35;;;1.98;;
18066;SDS011;9158;51.528;7.192;2023-07-16T00:21:20;4.50;;;2.00;;
18066;SDS011;9158;51.528;7.192;2023-07-16T00:21:52;1.77;;;1.65;;
18066;SDS011;9158;51.528;7.192;2023-07-16T00:22:23;1.67;;;1.57;;
18066;SDS011;9158;51.528;7.192;2023-07-16T00:22:54;1.90;;;1.45;;
18066;SDS011;9158;51.528;7.192;2023-07-16T00:23:25;3.40;;;1.63;;
18066;SDS011;9158;51.528;7.192;2023-07-16T00:23:57;3.25;;;2.10;;
18066;SDS011;9158;51.528;7.192;2023-07-16T00:24:28;1.90;;;1.27;;
18066;SDS011;9158;51.528;7.192;2023-07-16T00:24:59;2.53;;;2.28;;
18066;SDS011;9158;51.528;7.192;2023-07-16T00:25:30;6.07;;;1.80;;
18066;SDS011;9158;51.528;7.192;2023-07-16T00:26:02;2.70;;;1.85;;
18066;SDS011;9158;51.528;7.192;2023-07-16T00:26:33;3.95;;;1.90;;
18066;SDS011;9158;51.528;7.192;2023-07-16T00:27:04;2.90;;;1.87;;
18066;SDS011;9158;51.528;7.192;2023-07-16T00:27:35;1.60;;;1.50;;
18066;SDS011;9158;51.528;7.192;2023-07-16T00:28:07;2.42;;;2.22;;
18066;SDS011;9158;51.528;7.192;2023-07-16T00:28:39;2.03;;;1.65;;
18066;SDS011;9158;51.528;7.192;2023-07-16T00:29:10;2.40;;;1.58;;
18066;SDS011;9158;51.528;7.192;2023-07-16T00:29:42;3.10;;;1.80;;
18066;SDS011;9158;51.528;7.192;2023-07-16T00:30:13;2.00;;;1.80;;
18066;SDS011;9158;51.528;7.192;2023-07-16T00:30:44;3.22;;;1.60;;
18066;SDS011;9158;51.528;7.192;2023-07-16T00:31:15;1.92;;;1.83;;
18066;SDS011;9158;51.528;7.192;2023-07-16T00:31:47;1.83;;;1.73;;
18066;SDS011;9158;51.528;7.192;2023-07-16T00:32:18;2.38;;;1.70;;
18066;SDS011;9158;51.528;7.192;2023-07-16T00:32:49;4.85;;;1.88;;
18066;SDS011;9158;51.528;7.192;2023-07-16T00:33:20;2.27;;;1.80;;
18066;SDS011;9158;51.528;7.192;2023-07-16T00:33:52;6.80;;;1.88;;
18066;SDS011;9158;51.528;7.192;2023-07-16T00:34:23;4.40;;;1.50;;
18066;SDS011;9158;51.528;7.192;2023-07-16T00:34:54;2.30;;;1.60;;
18066;SDS011;9158;51.528;7.192;2023-07-16T00:35:25;2.28;;;2.17;;
18066;SDS011;9158;51.528;7.192;2023-07-16T00:35:57;2.22;;;1.60;;
18066;SDS011;9158;51.528;7.192;2023-07-16T00:36:28;1.60;;;1.50;;
18066;SDS011;9158;51.528;7.192;2023-07-16T00:36:59;2.00;;;1.90;;
18066;SDS011;9158;51.528;7.192;2023-07-16T00:37:32;2.17;;;1.60;;
18066;SDS011;9158;51.528;7.192;2023-07-16T00:38:04;2.10;;;1.90;;
18066;SDS011;9158;51.528;7.192;2023-07-16T00:38:35;2.63;;;2.00;;
18066;SDS011;9158;51.528;7.192;2023-07-16T00:39:06;2.40;;;2.20;;
18066;SDS011;9158;51.528;7.192;2023-07-16T00:39:40;2.50;;;1.80;;
18066;SDS011;9158;51.528;7.192;2023-07-16T00:40:11;2.03;;;1.90;;
18066;SDS011;9158;51.528;7.192;2023-07-16T00:40:42;3.83;;;2.38;;
18066;SDS011;9158;51.528;7.192;2023-07-16T00:41:13;1.48;;;1.38;;
18066;SDS011;9158;51.528;7.192;2023-07-16T00:41:45;2.78;;;2.13;;
18066;SDS011;9158;51.528;7.192;2023-07-16T00:42:17;5.20;;;2.08;;
18066;SDS011;9158;51.528;7.192;2023-07-16T00:42:48;4.60;;;2.00;;
18066;SDS011;9158;51.528;7.192;2023-07-16T00:43:19;2.20;;;1.50;;
18066;SDS011;9158;51.528;7.192;2023-07-16T00:43:52;1.70;;;1.57;;
18066;SDS011;9158;51.528;7.192;2023-07-16T00:44:24;1.90;;;1.80;;
18066;SDS011;9158;51.528;7.192;2023-07-16T00:44:56;3.42;;;2.30;;
18066;SDS011;9158;51.528;7.192;2023-07-16T00:45:28;3.22;;;1.80;;
18066;SDS011;9158;51.528;7.192;2023-07-16T00:45:59;2.95;;;1.73;;
18066;SDS011;9158;51.528;7.192;2023-07-16T00:46:30;2.95;;;1.98;;
18066;SDS011;9158;51.528;7.192;2023-07-16T00:47:01;1.98;;;1.70;;
18066;SDS011;9158;51.528;7.192;2023-07-16T00:47:33;3.30;;;1.60;;
18066;SDS011;9158;51.528;7.192;2023-07-16T00:48:04;3.50;;;2.08;;
18066;SDS011;9158;51.528;7.192;2023-07-16T00:48:38;2.75;;;1.65;;
18066;SDS011;9158;51.528;7.192;2023-07-16T00:49:12;2.97;;;1.92;;
18066;SDS011;9158;51.528;7.192;2023-07-16T00:49:43;4.10;;;1.80;;
18066;SDS011;9158;51.528;7.192;2023-07-16T00:50:14;2.25;;;2.05;;
18066;SDS011;9158;51.528;7.192;2023-07-16T00:50:45;1.80;;;1.70;;
18066;SDS011;9158;51.528;7.192;2023-07-16T00:51:17;3.13;;;1.75;;
18066;SDS011;9158;51.528;7.192;2023-07-16T00:51:48;3.55;;;1.88;;
18066;SDS011;9158;51.528;7.192;2023-07-16T00:52:22;3.03;;;2.10;;
18066;SDS011;9158;51.528;7.192;2023-07-16T00:52:53;2.28;;;1.80;;
18066;SDS011;9158;51.528;7.192;2023-07-16T00:53:26;3.85;;;2.28;;
18066;SDS011;9158;51.528;7.192;2023-07-16T00:53:57;2.67;;;2.05;;
18066;SDS011;9158;51.528;7.192;2023-07-16T00:54:28;1.98;;;1.70;;
18066;SDS011;9158;51.528;7.192;2023-07-16T00:55:00;2.15;;;1.63;;
18066;SDS011;9158;51.528;7.192;2023-07-16T00:55:32;2.00;;;1.90;;
18066;SDS011;9158;51.528;7.192;2023-07-16T00:56:05;3.72;;;1.95;;
18066;SDS011;9158;51.528;7.192;2023-07-16T00:56:37;3.28;;;2.10;;
18066;SDS011;9158;51.528;7.192;2023-07-16T00:57:09;2.95;;;2.20;;
18066;SDS011;9158;51.528;7.192;2023-07-16T00:57:40;2.25;;;1.95;;
18066;SDS011;9158;51.528;7.192;2023-07-16T00:58:12;2.40;;;2.00;;
18066;SDS011;9158;51.528;7.192;2023-07-16T00:58:43;3.87;;;2.47;;
18066;SDS011;9158;51.528;7.192;2023-07-16T00:59:17;5.47;;;2.72;;
18066;SDS011;9158;51.528;7.192;2023-07-16T00:59:48;6.30;;;3.08;;
18066;SDS011;9158;51.528;7.192;2023-07-16T01:00:21;3.72;;;2.95;;
18066;SDS011;9158;51.528;7.192;2023-07-16T01:00:52;3.70;;;2.92;;
18066;SDS011;9158;51.528;7.192;2023-07-16T01:01:24;3.63;;;2.80;;
18066;SDS011;9158;51.528;7.192;2023-07-16T01:01:55;3.60;;;2.40;;
18066;SDS011;9158;51.528;7.192;2023-07-16T01:02:26;3.13;;;2.53;;
18066;SDS011;9158;51.528;7.192;2023-07-16T01:02:58;3.45;;;3.15;;
18066;SDS011;9158;51.528;7.192;2023-07-16T01:03:32;3.75;;;2.60;;
18066;SDS011;9158;51.528;7.192;2023-07-16T01:04:03;3.55;;;2.80;;
18066;SDS011;9158;51.528;7.192;2023-07-16T01:04:34;2.75;;;2.55;;
18066;SDS011;9158;51.528;7.192;2023-07-16T01:05:05;5.65;;;3.58;;
18066;SDS011;9158;51.528;7.192;2023-07-16T01:05:39;3.33;;;3.03;;
18066;SDS011;9158;51.528;7.192;2023-07-16T01:06:18;4.53;;;3.50;;
18066;SDS011;9158;51.528;7.192;2023-07-16T01:06:56;3.30;;;3.10;;
18066;SDS011;9158;51.528;7.192;2023-07-16T01:07:31;4.78;;;3.85;;
18066;SDS011;9158;51.528;7.192;2023-07-16T01:08:06;3.95;;;2.97;;
18066;SDS011;9158;51.528;7.192;2023-07-16T01:08:40;3.67;;;3.38;;
18066;SDS011;9158;51.528;7.192;2023-07-16T01:09:15;3.53;;;3.22;;
18066;SDS011;9158;51.528;7.192;2023-07-16T01:09:47;5.97;;;3.40;;
18066;SDS011;9158;51.528;7.192;2023-07-16T01:10:19;5.90;;;3.78;;
18066;SDS011;9158;51.528;7.192;2023-07-16T01:10:52;5.20;;;3.90;;
18066;SDS011;9158;51.528;7.192;2023-07-16T01:11:25;4.72;;;3.30;;
18066;SDS011;9158;51.528;7.192;2023-07-16T01:11:57;3.58;;;3.13;;
18066;SDS011;9158;51.528;7.192;2023-07-16T01:12:31;3.90;;;3.38;;
18066;SDS011;9158;51.528;7.192;2023-07-16T01:13:03;3.60;;;3.25;;
18066;SDS011;9158;51.528;7.192;2023-07-16T01:13:34;5.47;;;3.38;;
18066;SDS011;9158;51.528;7.192;2023-07-16T01:14:06;4.13;;;3.72;;
18066;SDS011;9158;51.528;7.192;2023-07-16T01:14:40;3.85;;;3.05;;
18066;SDS011;9158;51.528;7.192;2023-07-16T01:15:12;6.97;;;4.18;;
18066;SDS011;9158;51.528;7.192;2023-07-16T01:15:43;5.25;;;3.85;;
18066;SDS011;9158;51.528;7.192;2023-07-16T01:16:17;3.75;;;3.40;;
18066;SDS011;9158;51.528;7.192;2023-07-16T01:16:50;6.53;;;3.13;;
18066;SDS011;9158;51.528;7.192;2023-07-16T01:17:23;4.18;;;3.78;;
18066;SDS011;9158;51.528;7.192;2023-07-16T01:17:54;3.97;;;3.60;;
18066;SDS011;9158;51.528;7.192;2023-07-16T01:18:26;3.50;;;3.20;;
18066;SDS011;9158;51.528;7.192;2023-07-16T01:18:57;3.63;;;3.30;;
18066;SDS011;9158;51.528;7.192;2023-07-16T01:19:28;5.70;;;3.28;;
18066;SDS011;9158;51.528;7.192;2023-07-16T01:19:59;3.53;;;3.23;;
18066;SDS011;9158;51.528;7.192;2023-07-16T01:20:31;6.32;;;4.15;;
18066;SDS011;9158;51.528;7.192;2023-07-16T01:21:02;4.35;;;3.72;;
18066;SDS011;9158;51.528;7.192;2023-07-16T01:21:34;4.00;;;3.60;;
18066;SDS011;9158;51.528;7.192;2023-07-16T01:22:26;6.57;;;3.35;;
18066;SDS011;9158;51.528;7.192;2023-07-16T01:23:23;5.10;;;3.53;;
18066;SDS011;9158;51.528;7.192;2023-07-16T01:24:07;3.67;;;3.30;;
18066;SDS011;9158;51.528;7.192;2023-07-16T01:25:09;5.70;;;3.42;;
18066;SDS011;9158;51.528;7.192;2023-07-16T01:25:56;4.32;;;3.08;;
18066;SDS011;9158;51.528;7.192;2023-07-16T01:26:51;4.50;;;3.83;;
18066;SDS011;9158;51.528;7.192;2023-07-16T01:27:46;3.85;;;2.90;;
18066;SDS011;9158;51.528;7.192;2023-07-16T01:28:38;4.82;;;3.40;;
18066;SDS011;9158;51.528;7.192;2023-07-16T01:29:32;4.15;;;3.25;;
18066;SDS011;9158;51.528;7.192;2023-07-16T01:30:07;5.13;;;3.00;;
18066;SDS011;9158;51.528;7.192;2023-07-16T01:30:39;4.80;;;3.38;;
18066;SDS011;9158;51.528;7.192;2023-07-16T01:31:16;4.15;;;3.10;;
18066;SDS011;9158;51.528;7.192;2023-07-16T01:31:49;6.60;;;3.50;;
18066;SDS011;9158;51.528;7.192;2023-07-16T01:32:21;4.45;;;3.17;;
18066;SDS011;9158;51.528;7.192;2023-07-16T01:32:53;3.75;;;2.92;;
18066;SDS011;9158;51.528;7.192;2023-07-16T01:33:25;5.43;;;3.22;;
18066;SDS011;9158;51.528;7.192;2023-07-16T01:33:58;4.45;;;3.17;;
18066;SDS011;9158;51.528;7.192;2023-07-16T01:34:31;6.15;;;3.50;;
18066;SDS011;9158;51.528;7.192;2023-07-16T01:35:04;3.60;;;2.60;;
18066;SDS011;9158;51.528;7.192;2023-07-16T01:35:36;3.42;;;3.13;;
18066;SDS011;9158;51.528;7.192;2023-07-16T01:36:09;3.85;;;3.30;;
18066;SDS011;9158;51.528;7.192;2023-07-16T01:36:41;4.20;;;3.00;;
18066;SDS011;9158;51.528;7.192;2023-07-16T01:37:13;5.30;;;3.40;;
18066;SDS011;9158;51.528;7.192;2023-07-16T01:37:45;4.40;;;2.83;;
18066;SDS011;9158;51.528;7.192;2023-07-16T01:38:16;3.92;;;3.13;;
18066;SDS011;9158;51.528;7.192;2023-07-16T01:38:51;5.60;;;2.80;;
18066;SDS011;9158;51.528;7.192;2023-07-16T01:39:22;3.20;;;2.83;;
18066;SDS011;9158;51.528;7.192;2023-07-16T01:39:54;4.55;;;2.70;;
18066;SDS011;9158;51.528;7.192;2023-07-16T01:40:26;4.63;;;2.72;;
18066;SDS011;9158;51.528;7.192;2023-07-16T01:40:56;5.80;;;2.78;;
18066;SDS011;9158;51.528;7.192;2023-07-16T01:41:28;5.03;;;2.80;;
18066;SDS011;9158;51.528;7.192;2023-07-16T01:42:00;3.35;;;2.70;;
18066;SDS011;9158;51.528;7.192;2023-07-16T01:42:31;5.65;;;2.70;;
18066;SDS011;9158;51.528;7.192;2023-07-16T01:43:02;3.50;;;2.50;;
18066;SDS011;9158;51.528;7.192;2023-07-16T01:43:33;3.23;;;2.90;;
18066;SDS011;9158;51.528;7.192;2023-07-16T01:44:05;3.95;;;2.30;;
18066;SDS011;9158;51.528;7.192;2023-07-16T01:44:37;3.75;;;1.88;;
18066;SDS011;9158;51.528;7.192;2023-07-16T01:45:08;2.40;;;2.10;;
18066;SDS011;9158;51.528;7.192;2023-07-16T01:45:40;3.15;;;2.35;;
18066;SDS011;9158;51.528;7.192;2023-07-16T01:46:11;3.10;;;2.65;;
18066;SDS011;9158;51.528;7.192;2023-07-16T01:46:42;2.88;;;2.30;;
18066;SDS011;9158;51.528;7.192;2023-07-16T01:47:15;2.75;;;2.15;;
18066;SDS011;9158;51.528;7.192;2023-07-16T01:47:56;2.45;;;2.25;;
18066;SDS011;9158;51.528;7.192;2023-07-16T01:48:36;6.25;;;2.50;;
18066;SDS011;9158;51.528;7.192;2023-07-16T01:49:08;2.78;;;2.17;;
18066;SDS011;9158;51.528;7.192;2023-07-16T01:49:39;4.80;;;2.80;;
18066;SDS011;9158;51.528;7.192;2023-07-16T01:50:12;3.65;;;2.10;;
18066;SDS011;9158;51.528;7.192;2023-07-16T01:50:43;5.27;;;2.13;;
18066;SDS011;9158;51.528;7.192;2023-07-16T01:51:14;2.60;;;2.17;;
18066;SDS011;9158;51.528;7.192;2023-07-16T01:51:45;2.40;;;2.20;;
18066;SDS011;9158;51.528;7.192;2023-07-16T01:52:20;3.45;;;2.15;;
18066;SDS011;9158;51.528;7.192;2023-07-16T01:52:51;2.97;;;2.30;;
18066;SDS011;9158;51.528;7.192;2023-07-16T01:53:22;2.87;;;2.27;;
18066;SDS011;9158;51.528;7.192;2023-07-16T01:53:54;2.35;;;2.15;;
18066;SDS011;9158;51.528;7.192;2023-07-16T01:54:25;3.83;;;2.25;;
18066;SDS011;9158;51.528;7.192;2023-07-16T01:54:56;4.70;;;2.42;;
18066;SDS011;9158;51.528;7.192;2023-07-16T01:55:27;3.75;;;2.35;;
18066;SDS011;9158;51.528;7.192;2023-07-16T01:56:00;2.72;;;2.20;;
18066;SDS011;9158;51.528;7.192;2023-07-16T01:56:32;5.03;;;2.13;;
18066;SDS011;9158;51.528;7.192;2023-07-16T01:57:03;2.42;;;2.20;;
18066;SDS011;9158;51.528;7.192;2023-07-16T01:57:35;4.90;;;2.38;;
18066;SDS011;9158;51.528;7.192;2023-07-16T01:58:06;4.95;;;2.22;;
18066;SDS011;9158;51.528;7.192;2023-07-16T01:58:38;3.08;;;2.15;;
18066;SDS011;9158;51.528;7.192;2023-07-16T01:59:09;2.40;;;2.10;;
18066;SDS011;9158;51.528;7.192;2023-07-16T01:59:41;2.87;;;1.97;;
18066;SDS011;9158;51.528;7.192;2023-07-16T02:00:13;7.57;;;2.28;;
18066;SDS011;9158;51.528;7.192;2023-07-16T02:00:50;2.70;;;2.17;;
18066;SDS011;9158;51.528;7.192;2023-07-16T02:01:21;2.85;;;1.98;;
18066;SDS011;9158;51.528;7.192;2023-07-16T02:01:52;4.27;;;1.70;;
18066;SDS011;9158;51.528;7.192;2023-07-16T02:02:24;3.17;;;2.05;;
18066;SDS011;9158;51.528;7.192;2023-07-16T02:02:55;5.22;;;2.58;;
18066;SDS011;9158;51.528;7.192;2023-07-16T02:03:26;3.10;;;1.70;;
18066;SDS011;9158;51.528;7.192;2023-07-16T02:03:57;2.03;;;1.87;;
18066;SDS011;9158;51.528;7.192;2023-07-16T02:04:30;5.70;;;2.60;;
18066;SDS011;9158;51.528;7.192;2023-07-16T02:05:02;2.70;;;1.77;;
18066;SDS011;9158;51.528;7.192;2023-07-16T02:05:34;2.15;;;1.83;;
18066;SDS011;9158;51.528;7.192;2023-07-16T02:06:05;4.83;;;2.20;;
18066;SDS011;9158;51.528;7.192;2023-07-16T02:06:38;5.85;;;2.75;;
18066;SDS011;9158;51.528;7.192;2023-07-16T02:07:09;4.72;;;2.13;;
18066;SDS011;9158;51.528;7.192;2023-07-16T02:07:39;2.70;;;2.50;;
18066;SDS011;9158;51.528;7.192;2023-07-16T02:08:10;3.80;;;2.57;;
18066;SDS011;9158;51.528;7.192;2023-07-16T02:08:42;2.55;;;2.35;;
18066;SDS011;9158;51.528;7.192;2023-07-16T02:09:13;2.70;;;2.00;;
18066;SDS011;9158;51.528;7.192;2023-07-16T02:09:44;4.30;;;2.10;;
18066;SDS011;9158;51.528;7.192;2023-07-16T02:10:15;2.53;;;2.33;;
18066;SDS011;9158;51.528;7.192;2023-07-16T02:10:47;2.97;;;2.07;;
18066;SDS011;9158;51.528;7.192;2023-07-16T02:11:19;2.65;;;2.33;;
18066;SDS011;9158;51.528;7.192;2023-07-16T02:11:52;2.92;;;2.00;;
18066;SDS011;9158;51.528;7.192;2023-07-16T02:12:23;6.10;;;2.55;;
18066;SDS011;9158;51.528;7.192;2023-07-16T02:12:54;3.25;;;2.40;;
18066;SDS011;9158;51.528;7.192;2023-07-16T02:13:27;8.35;;;2.95;;
18066;SDS011;9158;51.528;7.192;2023-07-16T02:13:58;2.30;;;2.08;;
18066;SDS011;9158;51.528;7.192;2023-07-16T02:14:29;4.77;;;2.47;;
18066;SDS011;9158;51.528;7.192;2023-07-16T02:15:02;2.35;;;2.03;;
18066;SDS011;9158;51.528;7.192;2023-07-16T02:15:39;2.90;;;2.47;;
18066;SDS011;9158;51.528;7.192;2023-07-16T02:16:10;4.20;;;2.95;;
18066;SDS011;9158;51.528;7.192;2023-07-16T02:16:44;3.28;;;2.25;;
18066;SDS011;9158;51.528;7.192;2023-07-16T02:17:15;5.60;;;3.03;;
18066;SDS011;9158;51.528;7.192;2023-07-16T02:17:46;2.72;;;2.13;;
18066;SDS011;9158;51.528;7.192;2023-07-16T02:18:20;3.35;;;2.28;;
18066;SDS011;9158;51.528;7.192;2023-07-16T02:18:52;3.10;;;2.00;;
18066;SDS011;9158;51.528;7.192;2023-07-16T02:19:23;2.50;;;2.23;;
18066;SDS011;9158;51.528;7.192;2023-07-16T02:19:56;5.03;;;2.70;;
18066;SDS011;9158;51.528;7.192;2023-07-16T02:20:26;5.30;;;2.92;;
18066;SDS011;9158;51.528;7.192;2023-07-16T02:20:58;2.35;;;1.90;;
18066;SDS011;9158;51.528;7.192;2023-07-16T02:21:29;4.67;;;2.40;;
18066;SDS011;9158;51.528;7.192;2023-07-16T02:22:00;2.63;;;2.17;;
18066;SDS011;9158;51.528;7.192;2023-07-16T02:22:33;2.97;;;2.10;;
18066;SDS011;9158;51.528;7.192;2023-07-16T02:23:05;4.47;;;2.42;;
18066;SDS011;9158;51.528;7.192;2023-07-16T02:23:36;2.85;;;2.10;;
18066;SDS011;9158;51.528;7.192;2023-07-16T02:24:07;3.60;;;2.22;;
18066;SDS011;9158;51.528;7.192;2023-07-16T02:24:39;3.45;;;2.28;;
18066;SDS011;9158;51.528;7.192;2023-07-16T02:25:10;2.60;;;2.40;;
18066;SDS011;9158;51.528;7.192;2023-07-16T02:25:41;3.50;;;2.10;;
18066;SDS011;9158;51.528;7.192;2023-07-16T02:26:12;9.13;;;2.58;;
18066;SDS011;9158;51.528;7.192;2023-07-16T02:26:46;2.30;;;2.10;;
18066;SDS011;9158;51.528;7.192;2023-07-16T02:27:18;2.75;;;2.30;;
18066;SDS011;9158;51.528;7.192;2023-07-16T02:27:49;2.60;;;2.10;;
18066;SDS011;9158;51.528;7.192;2023-07-16T02:28:20;5.88;;;2.10;;
18066;SDS011;9158;51.528;7.192;2023-07-16T02:28:52;3.17;;;2.10;;
18066;SDS011;9158;51.528;7.192;2023-07-16T02:29:23;3.83;;;2.30;;
18066;SDS011;9158;51.528;7.192;2023-07-16T02:29:54;3.35;;;2.40;;
18066;SDS011;9158;51.528;7.192;2023-07-16T02:30:26;5.32;;;2.15;;
18066;SDS011;9158;51.528;7.192;2023-07-16T02:30:57;4.50;;;2.33;;
18066;SDS011;9158;51.528;7.192;2023-07-16T02:31:29;5.97;;;2.20;;
18066;SDS011;9158;51.528;7.192;2023-07-16T02:32:00;5.90;;;2.87;;
18066;SDS011;9158;51.528;7.192;2023-07-16T02:32:31;5.50;;;2.73;;
18066;SDS011;9158;51.528;7.192;2023-07-16T02:33:04;2.75;;;2.28;;
18066;SDS011;9158;51.528;7.192;2023-07-16T02:33:36;2.35;;;2.00;;
18066;SDS011;9158;51.528;7.192;2023-07-16T02:34:07;2.67;;;2.00;;
18066;SDS011;9158;51.528;7.192;2023-07-16T02:34:38;3.70;;;2.60;;
18066;SDS011;9158;51.528;7.192;2023-07-16T02:35:09;2.50;;;2.30;;
18066;SDS011;9158;51.528;7.192;2023-07-16T02:35:45;2.30;;;2.03;;
18066;SDS011;9158;51.528;7.192;2023-07-16T02:36:16;2.28;;;2.08;;
18066;SDS011;9158;51.528;7.192;2023-07-16T02:36:47;3.03;;;2.40;;
18066;SDS011;9158;51.528;7.192;2023-07-16T02:37:18;2.90;;;1.80;;
18066;SDS011;9158;51.528;7.192;2023-07-16T02:37:50;5.72;;;2.03;;
18066;SDS011;9158;51.528;7.192;2023-07-16T02:38:23;3.20;;;2.22;;
18066;SDS011;9158;51.528;7.192;2023-07-16T02:38:54;2.30;;;2.10;;
18066;SDS011;9158;51.528;7.192;2023-07-16T02:39:26;2.95;;;2.10;;
18066;SDS011;9158;51.528;7.192;2023-07-16T02:39:58;4.30;;;2.40;;
18066;SDS011;9158;51.528;7.192;2023-07-16T02:40:29;2.17;;;2.08;;
18066;SDS011;9158;51.528;7.192;2023-07-16T02:41:00;3.60;;;3.03;;
18066;SDS011;9158;51.528;7.192;2023-07-16T02:41:31;4.50;;;3.20;;
18066;SDS011;9158;51.528;7.192;2023-07-16T02:42:03;2.85;;;2.05;;
18066;SDS011;9158;51.528;7.192;2023-07-16T02:42:35;3.30;;;2.17;;
18066;SDS011;9158;51.528;7.192;2023-07-16T02:43:06;2.50;;;2.30;;
18066;SDS011;9158;51.528;7.192;2023-07-16T02:43:37;2.88;;;2.20;;
18066;SDS011;9158;51.528;7.192;2023-07-16T02:44:09;4.70;;;2.40;;
18066;SDS011;9158;51.528;7.192;2023-07-16T02:44:40;3.63;;;1.90;;
18066;SDS011;9158;51.528;7.192;2023-07-16T02:45:14;4.00;;;2.13;;
18066;SDS011;9158;51.528;7.192;2023-07-16T02:45:47;3.15;;;2.42;;
18066;SDS011;9158;51.528;7.192;2023-07-16T02:46:18;3.25;;;2.35;;
18066;SDS011;9158;51.528;7.192;2023-07-16T02:46:50;2.45;;;2.25;;
18066;SDS011;9158;51.528;7.192;2023-07-16T02:47:21;2.70;;;2.30;;
18066;SDS011;9158;51.528;7.192;2023-07-16T02:47:54;4.43;;;2.20;;
18066;SDS011;9158;51.528;7.192;2023-07-16T02:48:26;4.10;;;2.13;;
18066;SDS011;9158;51.528;7.192;2023-07-16T02:48:57;5.20;;;2.73;;
18066;SDS011;9158;51.528;7.192;2023-07-16T02:49:28;3.40;;;2.13;;
18066;SDS011;9158;51.528;7.192;2023-07-16T02:50:01;3.90;;;2.72;;
18066;SDS011;9158;51.528;7.192;2023-07-16T02:50:33;4.25;;;2.28;;
18066;SDS011;9158;51.528;7.192;2023-07-16T02:51:05;3.15;;;2.20;;
18066;SDS011;9158;51.528;7.192;2023-07-16T02:51:36;2.25;;;1.90;;
18066;SDS011;9158;51.528;7.192;2023-07-16T02:52:08;4.35;;;2.00;;
18066;SDS011;9158;51.528;7.192;2023-07-16T02:52:39;2.07;;;1.90;;
18066;SDS011;9158;51.528;7.192;2023-07-16T02:53:10;4.85;;;2.60;;
18066;SDS011;9158;51.528;7.192;2023-07-16T02:53:41;4.40;;;1.85;;
18066;SDS011;9158;51.528;7.192;2023-07-16T02:54:12;2.43;;;1.70;;
18066;SDS011;9158;51.528;7.192;2023-07-16T02:54:44;2.58;;;1.98;;
18066;SDS011;9158;51.528;7.192;2023-07-16T02:55:15;2.08;;;1.98;;
18066;SDS011;9158;51.528;7.192;2023-07-16T02:55:46;4.18;;;1.85;;
18066;SDS011;9158;51.528;7.192;2023-07-16T02:56:18;3.25;;;1.95;;
18066;SDS011;9158;51.528;7.192;2023-07-16T02:56:49;3.20;;;1.77;;
18066;SDS011;9158;51.528;7.192;2023-07-16T02:57:21;2.97;;;2.10;;
18066;SDS011;9158;51.528;7.192;2023-07-16T02:57:53;2.40;;;1.75;;
18066;SDS011;9158;51.528;7.192;2023-07-16T02:58:23;4.63;;;2.20;;
18066;SDS011;9158;51.528;7.192;2023-07-16T02:58:55;3.25;;;2.05;;
18066;SDS011;9158;51.528;7.192;2023-07-16T02:59:25;6.55;;;2.15;;
18066;SDS011;9158;51.528;7.192;2023-07-16T02:59:57;4.00;;;2.08;;
18066;SDS011;9158;51.528;7.192;2023-07-16T03:00:28;1.98;;;1.77;;
18066;SDS011;9158;51.528;7.192;2023-07-16T03:01:01;6.15;;;2.25;;
18066;SDS011;9158;51.528;7.192;2023-07-16T03:01:32;5.20;;;2.13;;
18066;SDS011;9158;51.528;7.192;2023-07-16T03:02:04;3.88;;;2.47;;
18066;SDS011;9158;51.528;7.192;2023-07-16T03:02:35;2.30;;;1.90;;
18066;SDS011;9158;51.528;7.192;2023-07-16T03:03:06;2.33;;;1.70;;
18066;SDS011;9158;51.528;7.192;2023-07-16T03:03:37;4.70;;;1.80;;
18066;SDS011;9158;51.528;7.192;2023-07-16T03:04:08;3.45;;;1.65;;
18066;SDS011;9158;51.528;7.192;2023-07-16T03:04:39;4.10;;;1.90;;
18066;SDS011;9158;51.528;7.192;2023-07-16T03:05:11;3.47;;;2.45;;
18066;SDS011;9158;51.528;7.192;2023-07-16T03:05:43;3.30;;;2.03;;
18066;SDS011;9158;51.528;7.192;2023-07-16T03:06:14;2.07;;;1.77;;
18066;SDS011;9158;51.528;7.192;2023-07-16T03:06:45;5.07;;;2.00;;
18066;SDS011;9158;51.528;7.192;2023-07-16T03:07:16;3.37;;;1.83;;
18066;SDS011;9158;51.528;7.192;2023-07-16T03:07:48;3.80;;;1.73;;
18066;SDS011;9158;51.528;7.192;2023-07-16T03:08:21;4.47;;;1.95;;
18066;SDS011;9158;51.528;7.192;2023-07-16T03:08:53;2.72;;;2.10;;
18066;SDS011;9158;51.528;7.192;2023-07-16T03:09:23;4.88;;;2.10;;
18066;SDS011;9158;51.528;7.192;2023-07-16T03:09:55;2.72;;;1.77;;
18066;SDS011;9158;51.528;7.192;2023-07-16T03:10:26;4.27;;;2.00;;
18066;SDS011;9158;51.528;7.192;2023-07-16T03:10:57;2.75;;;1.98;;
18066;SDS011;9158;51.528;7.192;2023-07-16T03:11:28;2.63;;;1.80;;
18066;SDS011;9158;51.528;7.192;2023-07-16T03:12:00;3.50;;;2.05;;
18066;SDS011;9158;51.528;7.192;2023-07-16T03:12:31;4.32;;;1.88;;
18066;SDS011;9158;51.528;7.192;2023-07-16T03:13:02;5.80;;;2.47;;
18066;SDS011;9158;51.528;7.192;2023-07-16T03:13:33;4.60;;;1.40;;
18066;SDS011;9158;51.528;7.192;2023-07-16T03:14:05;2.40;;;1.63;;
18066;SDS011;9158;51.528;7.192;2023-07-16T03:14:36;4.03;;;2.30;;
18066;SDS011;9158;51.528;7.192;2023-07-16T03:15:07;5.43;;;2.20;;
18066;SDS011;9158;51.528;7.192;2023-07-16T03:15:39;3.30;;;1.92;;
18066;SDS011;9158;51.528;7.192;2023-07-16T03:16:12;2.42;;;1.70;;
18066;SDS011;9158;51.528;7.192;2023-07-16T03:16:43;2.75;;;1.80;;
18066;SDS011;9158;51.528;7.192;2023-07-16T03:17:14;3.27;;;2.40;;
18066;SDS011;9158;51.528;7.192;2023-07-16T03:17:45;3.53;;;1.80;;